createdAt,value
2023-05-08T00:02:13.624Z,8.08
2023-05-08T00:05:01.894Z,7.96
2023-05-08T00:07:48.617Z,7.86
2023-05-08T00:10:35.749Z,7.85
2023-05-08T00:13:22.237Z,7.90
2023-05-08T00:16:09.610Z,7.81
2023-05-08T00:18:56.741Z,7.73
2023-05-08T00:21:44.873Z,7.71
2023-05-08T00:24:31.607Z,7.71
2023-05-08T00:27:19.492Z,7.76
2023-05-08T00:30:07.596Z,7.72
2023-05-08T00:32:54.518Z,7.71
2023-05-08T00:35:43.011Z,7.70
2023-05-08T00:38:33.088Z,7.59
2023-05-08T00:41:19.913Z,7.81
2023-05-08T00:44:06.757Z,7.78
2023-05-08T00:46:53.716Z,7.69
2023-05-08T00:49:40.570Z,7.79
2023-05-08T00:52:29.091Z,7.81
2023-05-08T00:55:17.278Z,7.74
2023-05-08T00:58:03.959Z,7.73
2023-05-08T01:00:52.128Z,7.81
2023-05-08T01:03:39.586Z,7.81
2023-05-08T01:06:26.842Z,7.81
2023-05-08T01:09:13.284Z,7.79
2023-05-08T01:12:09.744Z,7.72
2023-05-08T01:15:06.571Z,7.65
2023-05-08T01:18:14.785Z,7.63
2023-05-08T01:21:08.434Z,7.66
2023-05-08T01:24:17.852Z,7.69
2023-05-08T01:27:40.201Z,7.54
2023-05-08T01:31:00.892Z,7.60
2023-05-08T01:33:56.071Z,7.51
2023-05-08T01:36:52.781Z,7.39
2023-05-08T01:39:45.672Z,7.26
2023-05-08T01:42:47.995Z,7.21
2023-05-08T01:45:40.377Z,7.15
2023-05-08T01:48:33.726Z,7.15
2023-05-08T01:51:24.806Z,7.21
2023-05-08T01:54:16.209Z,7.11
2023-05-08T01:57:04.538Z,7.01
2023-05-08T01:59:53.286Z,7.16
2023-05-08T02:02:40.716Z,7.05
2023-05-08T02:05:29.244Z,7.06
2023-05-08T02:08:19.400Z,7.05
2023-05-08T02:11:08.092Z,7.10
2023-05-08T02:13:55.764Z,7.01
2023-05-08T02:16:44.455Z,6.96
2023-05-08T02:19:32.392Z,6.84
2023-05-08T02:22:20.669Z,6.82
2023-05-08T02:25:10.154Z,6.85
2023-05-08T02:27:57.314Z,6.78
2023-05-08T02:30:52.128Z,6.56
2023-05-08T02:33:41.506Z,6.81
2023-05-08T02:36:29.610Z,6.76
2023-05-08T02:39:20.726Z,6.76
2023-05-08T02:42:08.909Z,6.79
2023-05-08T02:44:55.973Z,6.89
2023-05-08T02:47:52.368Z,6.67
2023-05-08T02:50:46.807Z,6.61
2023-05-08T02:53:42.075Z,6.69
2023-05-08T02:56:35.376Z,6.78
2023-05-08T02:59:29.692Z,6.86
2023-05-08T03:02:21.737Z,6.86
2023-05-08T03:05:16.470Z,6.79
2023-05-08T03:08:08.178Z,6.85
2023-05-08T03:10:58.796Z,6.78
2023-05-08T03:13:48.213Z,6.75
2023-05-08T03:16:39.942Z,6.62
2023-05-08T03:19:31.373Z,6.53
2023-05-08T03:22:21.596Z,6.62
2023-05-08T03:25:11.290Z,6.46
2023-05-08T03:28:00.785Z,6.46
2023-05-08T03:30:49.372Z,6.42
2023-05-08T03:33:39.945Z,6.39
2023-05-08T03:36:27.329Z,6.40
2023-05-08T03:39:14.441Z,6.47
2023-05-08T03:42:01.240Z,6.41
2023-05-08T03:44:50.088Z,6.38
2023-05-08T03:47:37.763Z,6.47
2023-05-08T03:50:26.635Z,6.54
2023-05-08T03:53:13.174Z,6.56
2023-05-08T03:56:02.228Z,6.60
2023-05-08T03:58:56.138Z,6.71
2023-05-08T04:01:51.042Z,6.69
2023-05-08T04:04:41.148Z,6.64
2023-05-08T04:07:38.626Z,6.72
2023-05-08T04:10:31.850Z,6.68
2023-05-08T04:13:24.005Z,6.84
2023-05-08T04:16:18.560Z,6.87
2023-05-08T04:19:10.619Z,7.05
2023-05-08T04:22:00.804Z,7.12
2023-05-08T04:24:50.325Z,7.37
2023-05-08T04:27:37.711Z,7.52
2023-05-08T04:30:25.108Z,7.49
2023-05-08T04:33:12.941Z,7.53
2023-05-08T04:36:02.489Z,7.86
2023-05-08T04:38:49.272Z,7.87
2023-05-08T04:41:37.592Z,8.07
2023-05-08T04:44:24.857Z,8.50
2023-05-08T04:47:11.649Z,8.78
2023-05-08T04:50:00.068Z,8.82
2023-05-08T04:52:48.899Z,8.97
2023-05-08T04:55:36.016Z,8.83
2023-05-08T04:58:24.350Z,8.82
2023-05-08T05:01:11.048Z,9.81
2023-05-08T05:03:57.806Z,11.99
2023-05-08T05:06:44.359Z,13.98
2023-05-08T05:09:31.659Z,15.73
2023-05-08T05:12:18.374Z,16.59
2023-05-08T05:15:08.436Z,16.77
2023-05-08T05:17:57.245Z,16.98
2023-05-08T05:20:44.038Z,17.13
2023-05-08T05:23:30.966Z,16.94
2023-05-08T05:26:17.794Z,16.78
2023-05-08T05:29:04.701Z,16.95
2023-05-08T05:31:53.030Z,16.83
2023-05-08T05:34:40.099Z,16.67
2023-05-08T05:37:27.133Z,16.38
2023-05-08T05:40:15.366Z,16.66
2023-05-08T05:43:02.922Z,17.00
2023-05-08T05:45:49.795Z,16.86
2023-05-08T05:48:38.038Z,17.04
2023-05-08T05:51:27.412Z,16.44
2023-05-08T05:54:15.272Z,16.07
2023-05-08T05:57:01.822Z,16.07
2023-05-08T05:59:49.045Z,16.63
2023-05-08T06:02:37.821Z,15.83
2023-05-08T06:05:26.311Z,14.59
2023-05-08T06:08:12.956Z,14.64
2023-05-08T06:11:00.098Z,14.38
2023-05-08T06:13:48.176Z,13.74
2023-05-08T06:16:36.647Z,13.78
2023-05-08T06:19:24.319Z,14.85
2023-05-08T06:22:12.510Z,16.18
2023-05-08T06:24:59.212Z,16.21
2023-05-08T06:27:46.273Z,15.87
2023-05-08T06:30:32.770Z,15.79
2023-05-08T06:33:19.903Z,15.52
2023-05-08T06:36:07.262Z,15.24
2023-05-08T06:38:55.121Z,14.76
2023-05-08T06:41:41.706Z,14.52
2023-05-08T06:44:28.441Z,14.51
2023-05-08T06:47:15.223Z,14.59
2023-05-08T06:50:02.819Z,14.44
2023-05-08T06:52:49.188Z,14.31
2023-05-08T06:55:37.560Z,14.43
2023-05-08T06:58:33.645Z,14.23
2023-05-08T07:01:21.845Z,14.40
2023-05-08T07:04:08.274Z,13.90
2023-05-08T07:06:55.060Z,14.12
2023-05-08T07:09:41.815Z,14.49
2023-05-08T07:12:30.122Z,14.26
2023-05-08T07:15:25.613Z,14.03
2023-05-08T07:18:12.812Z,13.90
2023-05-08T07:21:01.069Z,14.05
2023-05-08T07:23:53.837Z,14.19
2023-05-08T07:26:40.503Z,14.40
2023-05-08T07:29:28.628Z,14.63
2023-05-08T07:32:15.468Z,14.47
2023-05-08T07:35:03.911Z,14.75
2023-05-08T07:37:51.213Z,14.66
2023-05-08T07:40:45.402Z,14.66
2023-05-08T07:43:34.325Z,14.85
2023-05-08T07:46:24.226Z,14.66
2023-05-08T07:49:15.073Z,14.96
2023-05-08T07:52:03.781Z,14.94
2023-05-08T07:54:51.617Z,15.00
2023-05-08T07:57:39.782Z,14.86
2023-05-08T08:00:29.910Z,15.12
2023-05-08T08:03:17.917Z,15.22
2023-05-08T08:06:05.057Z,15.46
2023-05-08T08:08:51.545Z,15.33
2023-05-08T08:11:38.210Z,15.32
2023-05-08T08:14:25.237Z,15.50
2023-05-08T08:17:12.123Z,15.35
2023-05-08T08:20:00.292Z,15.56
2023-05-08T08:22:47.065Z,15.94
2023-05-08T08:25:33.961Z,16.08
2023-05-08T08:28:20.929Z,16.01
2023-05-08T08:31:07.539Z,16.14
2023-05-08T08:33:54.509Z,16.57
2023-05-08T08:36:42.580Z,17.54
2023-05-08T08:39:29.267Z,18.33
2023-05-08T08:42:16.139Z,18.23
2023-05-08T08:45:03.362Z,18.03
2023-05-08T08:47:54.064Z,17.86
2023-05-08T08:50:44.944Z,17.91
2023-05-08T08:53:43.861Z,18.60
2023-05-08T08:56:32.845Z,18.65
2023-05-08T08:59:20.440Z,18.80
2023-05-08T09:02:11.610Z,18.55
2023-05-08T09:04:59.023Z,18.70
2023-05-08T09:07:45.917Z,18.64
2023-05-08T09:10:36.130Z,18.40
2023-05-08T09:13:23.065Z,19.02
2023-05-08T09:16:09.826Z,18.89
2023-05-08T09:18:56.638Z,18.59
2023-05-08T09:21:43.871Z,18.33
2023-05-08T09:24:58.147Z,18.10
2023-05-08T09:27:46.035Z,18.01
2023-05-08T09:30:32.818Z,18.59
2023-05-08T09:33:20.096Z,18.74
2023-05-08T09:36:07.489Z,18.97
2023-05-08T09:38:54.237Z,18.70
2023-05-08T09:41:41.303Z,18.84
2023-05-08T09:44:29.950Z,18.46
2023-05-08T09:47:18.933Z,18.20
2023-05-08T09:50:07.379Z,18.51
2023-05-08T09:52:54.353Z,18.50
2023-05-08T09:55:48.291Z,18.56
2023-05-08T09:58:39.781Z,18.42
2023-05-08T10:01:33.647Z,18.62
2023-05-08T10:04:34.288Z,18.81
2023-05-08T10:07:30.302Z,18.95
2023-05-08T10:10:26.196Z,18.67
2023-05-08T10:13:14.549Z,18.81
2023-05-08T10:16:04.054Z,19.03
2023-05-08T10:18:57.768Z,19.07
2023-05-08T10:21:48.339Z,18.53
2023-05-08T10:24:36.230Z,18.65
2023-05-08T10:27:32.313Z,18.87
2023-05-08T10:30:25.264Z,19.04
2023-05-08T10:33:16.625Z,18.88
2023-05-08T10:36:08.301Z,18.97
2023-05-08T10:38:56.597Z,18.86
2023-05-08T10:41:45.083Z,18.80
2023-05-08T10:44:33.314Z,18.95
2023-05-08T10:47:27.725Z,18.96
2023-05-08T10:50:26.107Z,18.81
2023-05-08T10:53:20.169Z,18.81
2023-05-08T10:56:07.279Z,18.85
2023-05-08T10:58:59.282Z,19.00
2023-05-08T11:01:50.421Z,19.03
2023-05-08T11:04:39.609Z,18.91
2023-05-08T11:07:52.435Z,19.01
2023-05-08T11:10:42.993Z,19.22
2023-05-08T11:13:34.535Z,19.28
2023-05-08T11:16:55.694Z,19.14
2023-05-08T11:19:57.238Z,18.98
2023-05-08T11:22:49.990Z,19.04
2023-05-08T11:25:46.064Z,18.63
2023-05-08T11:28:34.721Z,18.99
2023-05-08T11:31:23.430Z,18.88
2023-05-08T11:34:43.891Z,18.83
2023-05-08T11:37:35.011Z,18.89
2023-05-08T11:40:53.875Z,19.46
2023-05-08T11:44:09.642Z,19.72
2023-05-08T11:46:59.643Z,19.73
2023-05-08T11:49:47.678Z,19.30
2023-05-08T11:52:36.210Z,19.54
2023-05-08T11:55:24.495Z,19.62
2023-05-08T11:58:18.350Z,19.43
2023-05-08T12:01:05.136Z,19.78
2023-05-08T12:04:01.976Z,19.60
2023-05-08T12:06:51.944Z,19.56
2023-05-08T12:09:40.428Z,19.67
2023-05-08T12:12:38.046Z,19.92
2023-05-08T12:15:27.475Z,20.06
2023-05-08T12:18:14.931Z,20.00
2023-05-08T12:21:02.622Z,19.77
2023-05-08T12:23:50.719Z,20.11
2023-05-08T12:26:38.509Z,20.15
2023-05-08T12:29:26.789Z,20.04
2023-05-08T12:32:15.893Z,19.98
2023-05-08T12:35:02.550Z,19.84
2023-05-08T12:37:54.740Z,20.17
2023-05-08T12:40:43.546Z,20.02
2023-05-08T12:43:35.674Z,19.94
2023-05-08T12:46:22.748Z,20.22
2023-05-08T12:49:13.397Z,20.49
2023-05-08T12:52:04.949Z,20.29
2023-05-08T12:54:51.556Z,20.43
2023-05-08T12:57:38.341Z,20.65
2023-05-08T13:00:25.061Z,20.29
2023-05-08T13:03:13.448Z,20.33
2023-05-08T13:06:01.461Z,20.50
2023-05-08T13:08:54.377Z,20.46
2023-05-08T13:11:40.869Z,20.29
2023-05-08T13:14:27.813Z,20.48
2023-05-08T13:17:18.508Z,20.45
2023-05-08T13:20:06.408Z,20.33
2023-05-08T13:22:55.189Z,20.62
2023-05-08T13:25:42.227Z,20.62
2023-05-08T13:28:29.051Z,20.69
2023-05-08T13:31:15.832Z,20.55
2023-05-08T13:34:02.655Z,20.72
2023-05-08T13:36:50.869Z,20.75
2023-05-08T13:39:39.171Z,20.83
2023-05-08T13:42:26.175Z,20.67
2023-05-08T13:45:14.773Z,20.96
2023-05-08T13:48:02.389Z,20.93
2023-05-08T13:50:48.898Z,20.91
2023-05-08T13:53:35.600Z,20.70
2023-05-08T13:56:23.804Z,20.88
2023-05-08T13:59:17.449Z,20.90
2023-05-08T14:02:05.323Z,20.89
2023-05-08T14:04:52.044Z,21.01
2023-05-08T14:07:38.714Z,20.84
2023-05-08T14:10:25.543Z,20.83
2023-05-08T14:13:13.717Z,20.49
2023-05-08T14:16:00.530Z,20.73
2023-05-08T14:18:47.252Z,21.01
2023-05-08T14:21:34.898Z,20.92
2023-05-08T14:24:21.402Z,20.81
2023-05-08T14:27:08.320Z,20.76
2023-05-08T14:29:56.572Z,20.68
2023-05-08T14:32:43.608Z,20.51
2023-05-08T14:35:30.101Z,20.70
2023-05-08T14:38:17.058Z,20.85
2023-05-08T14:41:04.899Z,20.79
2023-05-08T14:43:51.592Z,20.70
2023-05-08T14:46:40.013Z,20.59
2023-05-08T14:49:38.813Z,20.46
2023-05-08T14:52:31.783Z,20.47
2023-05-08T14:58:27.059Z,20.51
2023-05-08T15:01:14.006Z,20.68
2023-05-08T15:04:02.306Z,20.38
2023-05-08T15:06:48.979Z,20.65
2023-05-08T15:09:35.780Z,20.76
2023-05-08T15:12:22.574Z,20.53
2023-05-08T15:15:09.667Z,20.59
2023-05-08T15:17:56.121Z,20.56
2023-05-08T15:20:44.178Z,20.78
2023-05-08T15:23:30.869Z,20.81
2023-05-08T15:26:17.555Z,20.56
2023-05-08T15:29:04.351Z,20.66
2023-05-08T15:31:51.477Z,20.62
2023-05-08T15:34:39.282Z,20.47
2023-05-08T15:37:28.966Z,20.42
2023-05-08T15:40:15.896Z,20.37
2023-05-08T15:43:02.886Z,20.55
2023-05-08T15:45:49.587Z,20.61
2023-05-08T15:48:36.216Z,20.64
2023-05-08T15:51:22.896Z,20.59
2023-05-08T15:54:11.034Z,20.64
2023-05-08T15:56:57.952Z,20.47
2023-05-08T15:59:45.371Z,20.55
2023-05-08T16:02:31.979Z,20.49
2023-05-08T16:05:18.482Z,20.39
2023-05-08T16:08:06.026Z,20.42
2023-05-08T16:10:55.789Z,20.32
2023-05-08T16:13:42.479Z,20.32
2023-05-08T16:16:29.666Z,20.33
2023-05-08T16:19:16.179Z,20.25
2023-05-08T16:22:02.918Z,20.09
2023-05-08T16:24:49.743Z,20.06
2023-05-08T16:27:38.120Z,20.21
2023-05-08T16:30:24.732Z,19.82
2023-05-08T16:33:12.602Z,19.76
2023-05-08T16:35:59.541Z,19.57
2023-05-08T16:38:46.388Z,19.60
2023-05-08T16:41:33.018Z,19.29
2023-05-08T16:44:21.237Z,19.42
2023-05-08T16:47:08.159Z,19.52
2023-05-08T16:49:55.489Z,19.38
2023-05-08T16:52:41.945Z,19.33
2023-05-08T16:55:28.879Z,19.17
2023-05-08T16:58:16.093Z,19.23
2023-05-08T17:01:04.594Z,18.93
2023-05-08T17:03:51.104Z,19.05
2023-05-08T17:06:39.740Z,18.87
2023-05-08T17:09:26.459Z,18.77
2023-05-08T17:12:13.263Z,18.50
2023-05-08T17:14:59.869Z,18.59
2023-05-08T17:17:49.567Z,18.38
2023-05-08T17:20:42.421Z,18.17
2023-05-08T17:23:29.700Z,18.21
2023-05-08T17:26:16.502Z,17.97
2023-05-08T17:29:03.393Z,17.89
2023-05-08T17:31:50.127Z,17.67
2023-05-08T17:34:38.732Z,17.79
2023-05-08T17:37:25.135Z,17.78
2023-05-08T17:40:12.695Z,17.57
2023-05-08T17:42:59.987Z,17.65
2023-05-08T17:45:47.339Z,17.44
2023-05-08T17:48:35.240Z,17.31
2023-05-08T17:51:23.092Z,17.27
2023-05-08T17:54:09.858Z,17.20
2023-05-08T17:56:56.710Z,17.14
2023-05-08T17:59:43.379Z,17.06
2023-05-08T18:02:30.309Z,16.95
2023-05-08T18:05:18.022Z,16.76
2023-05-08T18:08:06.557Z,16.65
2023-05-08T18:10:53.265Z,16.62
2023-05-08T18:13:40.120Z,16.49
2023-05-08T18:16:26.870Z,16.39
2023-05-08T18:19:13.445Z,16.31
2023-05-08T18:22:00.354Z,16.21
2023-05-08T18:24:50.102Z,16.00
2023-05-08T18:27:36.842Z,15.91
2023-05-08T18:30:23.801Z,15.88
2023-05-08T18:33:10.313Z,15.58
2023-05-08T18:35:57.108Z,15.77
2023-05-08T18:38:47.303Z,15.56
2023-05-08T18:41:37.117Z,15.46
2023-05-08T18:44:24.768Z,15.20
2023-05-08T18:47:11.588Z,15.09
2023-05-08T18:50:00.016Z,15.02
2023-05-08T18:52:46.631Z,15.00
2023-05-08T18:55:33.554Z,14.93
2023-05-08T18:58:21.895Z,14.80
2023-05-08T19:01:09.315Z,14.54
2023-05-08T19:03:56.034Z,14.47
2023-05-08T19:06:42.798Z,14.41
2023-05-08T19:09:29.600Z,14.29
2023-05-08T19:12:16.452Z,14.19
2023-05-08T19:15:04.809Z,14.03
2023-05-08T19:17:52.940Z,13.97
2023-05-08T19:20:39.647Z,13.95
2023-05-08T19:23:26.470Z,14.01
2023-05-08T19:26:13.413Z,13.93
2023-05-08T19:29:00.202Z,13.84
2023-05-08T19:31:48.419Z,13.78
2023-05-08T19:34:37.128Z,13.72
2023-05-08T19:37:23.803Z,13.67
2023-05-08T19:40:11.687Z,13.62
2023-05-08T19:42:58.335Z,13.57
2023-05-08T19:45:45.591Z,13.54
2023-05-08T19:48:33.642Z,13.47
2023-05-08T19:51:20.724Z,13.43
2023-05-08T19:54:07.381Z,13.40
2023-05-08T19:56:54.346Z,13.39
2023-05-08T19:59:40.779Z,13.30
2023-05-08T20:02:27.607Z,13.35
2023-05-08T20:05:22.544Z,13.24
2023-05-08T20:08:10.101Z,13.17
2023-05-08T20:10:57.907Z,13.17
2023-05-08T20:13:45.363Z,13.26
2023-05-08T20:16:32.376Z,13.24
2023-05-08T20:19:19.120Z,13.18
2023-05-08T20:22:07.084Z,13.10
2023-05-08T20:24:53.793Z,12.95
2023-05-08T20:27:40.835Z,12.95
2023-05-08T20:30:27.737Z,12.96
2023-05-08T20:33:14.569Z,12.84
2023-05-08T20:36:01.427Z,12.90
2023-05-08T20:38:49.521Z,12.96
2023-05-08T20:41:38.070Z,12.90
2023-05-08T20:44:25.098Z,12.71
2023-05-08T20:47:11.991Z,12.71
2023-05-08T20:49:58.693Z,12.51
2023-05-08T20:52:45.468Z,12.30
2023-05-08T20:55:33.835Z,12.21
2023-05-08T20:58:20.635Z,12.21
2023-05-08T21:01:07.418Z,12.02
2023-05-08T21:03:54.434Z,11.80
2023-05-08T21:06:41.074Z,11.69
2023-05-08T21:09:27.912Z,11.66
2023-05-08T21:12:16.112Z,11.65
2023-05-08T21:15:03.180Z,11.56
2023-05-08T21:17:50.602Z,11.51
2023-05-08T21:20:37.143Z,11.62
2023-05-08T21:23:23.929Z,11.75
2023-05-08T21:26:10.702Z,11.71
2023-05-08T21:29:00.575Z,11.67
2023-05-08T21:31:47.521Z,11.78
2023-05-08T21:34:34.308Z,11.79
2023-05-08T21:37:21.114Z,11.67
2023-05-08T21:40:09.754Z,11.72
2023-05-08T21:42:56.525Z,11.86
2023-05-08T21:45:44.638Z,11.84
2023-05-08T21:48:31.368Z,11.79
2023-05-08T21:51:18.213Z,11.93
2023-05-08T21:54:05.356Z,11.92
2023-05-08T21:56:51.837Z,11.95
2023-05-08T21:59:38.636Z,11.79
2023-05-08T22:02:27.566Z,11.71
2023-05-08T22:05:14.447Z,11.71
2023-05-08T22:08:01.339Z,11.50
2023-05-08T22:10:48.231Z,11.47
2023-05-08T22:13:35.038Z,11.42
2023-05-08T22:16:21.825Z,11.48
2023-05-08T22:19:10.169Z,11.47
2023-05-08T22:21:56.810Z,11.44
2023-05-08T22:24:43.481Z,11.46
2023-05-08T22:27:30.209Z,11.32
2023-05-08T22:30:17.086Z,11.32
2023-05-08T22:33:03.874Z,11.18
2023-05-08T22:35:52.039Z,11.26
2023-05-08T22:38:40.391Z,11.21
2023-05-08T22:41:27.106Z,11.14
2023-05-08T22:44:14.028Z,11.09
2023-05-08T22:47:01.088Z,11.23
2023-05-08T22:49:48.158Z,11.15
2023-05-08T22:52:36.216Z,11.22
2023-05-08T22:55:22.911Z,11.08
2023-05-08T22:58:09.727Z,11.06
2023-05-08T23:00:56.918Z,10.94
2023-05-08T23:03:43.436Z,11.04
2023-05-08T23:06:30.207Z,11.00
2023-05-08T23:09:18.372Z,10.89
2023-05-08T23:12:05.621Z,10.81
2023-05-08T23:14:52.823Z,10.85
2023-05-08T23:17:39.333Z,10.78
2023-05-08T23:20:26.155Z,10.70
2023-05-08T23:23:12.989Z,10.62
2023-05-08T23:26:04.851Z,10.63
2023-05-08T23:28:51.646Z,10.65
2023-05-08T23:31:38.429Z,10.71
2023-05-08T23:34:25.177Z,10.71
2023-05-08T23:37:11.980Z,10.85
2023-05-08T23:39:58.859Z,10.90
2023-05-08T23:42:46.990Z,10.97
2023-05-08T23:45:33.784Z,11.12
2023-05-08T23:48:20.405Z,11.22
2023-05-08T23:51:07.269Z,11.36
2023-05-08T23:53:53.778Z,11.26
2023-05-08T23:56:40.581Z,11.34
2023-05-08T23:59:28.884Z,11.43
